Time;durP1;ratioP1;P1;durP2;ratioP2;P2;SDS_P1;SDS_P2;PMS_P1;PMS_P2;Temp;Humidity;BMP_temperature;BMP_pressure;BME280_temperature;BME280_humidity;BME280_pressure;Samples;Min_cycle;Max_cycle;Signal;HPM_P1;HPM_P2
2021/12/16 00:08:17;;;;;;;43.03;24.67;;;9.40;36.00;;;;;;6156919;28;20238;-58
2021/12/16 00:11:37;;;;;;;39.50;23.97;;;9.40;35.40;;;;;;6215299;28;20240;-58
2021/12/16 00:31:44;;;;;;;35.97;25.10;;;9.40;34.80;;;;;;6224056;28;20437;-59
2021/12/16 00:34:48;;;;;;;36.67;24.87;;;9.40;34.30;;;;;;6212688;28;20239;-59
2021/12/16 00:37:51;;;;;;;37.53;24.90;;;9.50;34.40;;;;;;6212995;28;20891;-59
2021/12/16 00:40:55;;;;;;;35.13;25.07;;;9.40;34.30;;;;;;6209161;28;20350;-60
2021/12/16 00:44:05;;;;;;;38.53;25.33;;;9.40;34.30;;;;;;6213271;28;20263;-60
2021/12/16 00:47:26;;;;;;;35.23;24.53;;;9.40;34.30;;;;;;6217800;28;20372;-58
2021/12/16 00:57:15;;;;;;;37.60;24.27;;;9.50;34.40;;;;;;6218635;28;20375;-56
2021/12/16 01:00:19;;;;;;;36.10;24.00;;;9.40;33.90;;;;;;6228527;28;20704;-59
2021/12/16 01:03:30;;;;;;;35.37;24.43;;;9.40;34.30;;;;;;6229183;28;20376;-57
2021/12/16 01:06:53;;;;;;;36.83;24.13;;;9.40;34.70;;;;;;6216043;28;20697;-60
2021/12/16 01:34:00;;;;;;;39.83;24.53;;;9.30;41.30;;;;;;6233174;28;20239;-58
2021/12/16 01:37:38;;;;;;;40.17;24.27;;;9.20;42.30;;;;;;6216923;28;20600;-58
2021/12/16 01:41:11;;;;;;;38.63;25.27;;;9.20;43.70;;;;;;6215483;28;20235;-59
2021/12/16 01:50:58;;;;;;;40.90;25.13;;;9.10;46.10;;;;;;6212881;28;20326;-60
2021/12/16 01:54:34;;;;;;;43.70;25.83;;;9.00;47.40;;;;;;6215757;28;20642;-59
2021/12/16 01:57:41;;;;;;;44.30;25.03;;;8.90;48.70;;;;;;6223277;28;20241;-59
2021/12/16 02:00:57;;;;;;;37.57;25.37;;;8.90;48.60;;;;;;6240681;28;20451;-58
2021/12/16 02:04:11;;;;;;;37.63;23.77;;;8.90;48.20;;;;;;6220701;28;20684;-57
2021/12/16 02:07:31;;;;;;;41.40;23.70;;;8.90;47.40;;;;;;6232295;28;20249;-58
2021/12/16 02:10:41;;;;;;;36.60;22.97;;;8.90;46.60;;;;;;6228051;28;20239;-58
2021/12/16 02:27:20;;;;;;;29.57;22.13;;;8.90;45.30;;;;;;6216822;28;20246;-60
2021/12/16 02:27:39;;;;;;;30.40;18.43;;;9.00;37.60;;;;;;6215302;28;20382;-58
2021/12/16 02:37:22;;;;;;;23.67;17.77;;;9.00;38.80;;;;;;6230353;28;20292;-59
2021/12/16 02:40:26;;;;;;;24.03;17.20;;;9.00;37.60;;;;;;6234503;28;20758;-58
2021/12/16 02:50:26;;;;;;;20.73;15.03;;;8.90;35.50;;;;;;6185356;28;20292;-58
2021/12/16 02:53:31;;;;;;;19.00;14.67;;;8.90;33.80;;;;;;6185646;28;20248;-60
2021/12/16 02:56:35;;;;;;;17.23;13.77;;;8.90;31.60;;;;;;6226389;28;20230;-59
2021/12/16 02:59:38;;;;;;;16.33;13.37;;;8.90;31.60;;;;;;6205733;28;20353;-59
2021/12/16 03:02:43;;;;;;;15.97;13.93;;;9.00;30.30;;;;;;6209853;28;20408;-58
2021/12/16 03:05:46;;;;;;;15.93;13.20;;;9.00;29.80;;;;;;6212861;28;20613;-58
2021/12/16 03:08:51;;;;;;;16.83;13.27;;;9.00;28.60;;;;;;6213790;28;20370;-59
2021/12/16 03:12:27;;;;;;;15.37;12.87;;;9.00;29.00;;;;;;6213743;28;20239;-59
2021/12/16 03:15:34;;;;;;;18.63;13.73;;;9.00;27.80;;;;;;6223026;28;20320;-60
2021/12/16 03:18:45;;;;;;;15.27;13.63;;;9.00;28.50;;;;;;6239216;28;20239;-60
2021/12/16 03:21:53;;;;;;;16.10;13.43;;;9.00;28.60;;;;;;6233182;28;20242;-59
2021/12/16 03:25:13;;;;;;;15.67;13.03;;;9.00;28.70;;;;;;6203188;28;20544;-58
2021/12/16 03:28:34;;;;;;;14.97;12.77;;;9.00;29.10;;;;;;6189211;28;22105;-59
2021/12/16 03:31:57;;;;;;;19.60;13.40;;;8.90;29.30;;;;;;6189757;28;20239;-59
2021/12/16 03:35:26;;;;;;;15.80;13.60;;;9.00;29.00;;;;;;6189801;28;20715;-60
2021/12/16 03:38:29;;;;;;;19.53;14.13;;;9.00;28.80;;;;;;6190238;28;20246;-58
2021/12/16 03:41:34;;;;;;;16.63;13.40;;;8.90;28.70;;;;;;6190123;28;20231;-59
2021/12/16 03:44:51;;;;;;;17.87;14.13;;;9.00;28.50;;;;;;6191035;28;20748;-59
2021/12/16 03:47:54;;;;;;;18.77;14.17;;;8.90;29.20;;;;;;6213265;28;20236;-58
2021/12/16 03:50:58;;;;;;;19.53;13.53;;;9.00;28.50;;;;;;6214217;28;20750;-62
2021/12/16 03:54:09;;;;;;;15.27;13.40;;;8.90;28.40;;;;;;6195883;28;20659;-58
2021/12/16 03:57:14;;;;;;;19.67;13.37;;;9.00;27.70;;;;;;6201228;28;20239;-60
2021/12/16 04:00:20;;;;;;;17.80;12.10;;;9.00;27.80;;;;;;6214469;28;20299;-59
2021/12/16 04:03:23;;;;;;;15.63;12.43;;;9.00;27.30;;;;;;6195024;28;20888;-59
2021/12/16 04:06:30;;;;;;;18.23;12.50;;;9.00;26.30;;;;;;6200983;28;20535;-58
2021/12/16 04:09:34;;;;;;;18.23;12.67;;;9.00;27.60;;;;;;6211044;28;20235;-60
2021/12/16 04:12:38;;;;;;;18.00;13.30;;;9.00;27.90;;;;;;6210980;28;20347;-61
2021/12/16 04:15:42;;;;;;;19.13;12.60;;;8.90;28.00;;;;;;6187418;28;20251;-60
2021/12/16 04:18:44;;;;;;;17.03;13.23;;;8.90;28.20;;;;;;6206889;28;20330;-60
2021/12/16 04:21:51;;;;;;;14.17;12.33;;;9.00;27.10;;;;;;6192298;28;20382;-60
2021/12/16 04:24:55;;;;;;;19.90;12.53;;;9.00;26.60;;;;;;6185987;28;20246;-60
2021/12/16 04:28:05;;;;;;;15.20;12.63;;;9.00;26.90;;;;;;6186826;28;20432;-59
2021/12/16 04:31:08;;;;;;;17.20;12.90;;;9.00;27.20;;;;;;6185034;28;20244;-60
2021/12/16 04:34:11;;;;;;;17.03;12.63;;;9.00;26.20;;;;;;6196384;28;20274;-60
2021/12/16 04:37:14;;;;;;;17.67;13.50;;;9.00;26.70;;;;;;6211334;28;20246;-60
2021/12/16 04:40:18;;;;;;;17.03;12.67;;;9.00;27.20;;;;;;6224982;28;20297;-59
2021/12/16 04:43:25;;;;;;;15.80;12.23;;;9.00;27.10;;;;;;6235846;28;20653;-63
2021/12/16 04:46:31;;;;;;;20.57;13.30;;;9.00;27.20;;;;;;6224680;28;20309;-62
2021/12/16 04:49:34;;;;;;;18.57;13.43;;;9.00;28.60;;;;;;6220182;28;20689;-59
2021/12/16 04:52:37;;;;;;;14.37;12.60;;;9.00;29.50;;;;;;6216631;28;20529;-60
2021/12/16 04:55:40;;;;;;;21.33;14.07;;;8.90;30.40;;;;;;6221516;28;20261;-60
2021/12/16 04:58:48;;;;;;;17.37;13.03;;;8.90;30.60;;;;;;6223536;28;20515;-58
2021/12/16 05:01:56;;;;;;;19.80;13.97;;;8.90;30.90;;;;;;6223306;28;20243;-59
2021/12/16 05:04:59;;;;;;;20.77;14.20;;;8.90;30.80;;;;;;6217958;28;20234;-59
2021/12/16 05:08:02;;;;;;;14.80;13.27;;;8.90;32.30;;;;;;6236191;28;20270;-58
2021/12/16 05:11:06;;;;;;;19.13;13.67;;;8.90;33.10;;;;;;6210983;28;20852;-60
2021/12/16 05:14:10;;;;;;;20.20;14.80;;;8.80;32.70;;;;;;6234079;28;20465;-59
2021/12/16 05:17:24;;;;;;;18.87;14.73;;;8.80;33.70;;;;;;6215728;28;20782;-59
2021/12/16 05:20:30;;;;;;;18.10;14.40;;;8.80;33.70;;;;;;6230071;28;20317;-59
2021/12/16 05:26:55;;;;;;;18.37;14.30;;;8.80;33.70;;;;;;6224340;28;20612;-59
2021/12/16 05:30:00;;;;;;;18.40;15.20;;;8.80;34.10;;;;;;6238426;28;20230;-59
2021/12/16 05:33:04;;;;;;;17.97;15.13;;;8.70;36.10;;;;;;6231037;28;20266;-59
2021/12/16 05:36:07;;;;;;;20.67;15.90;;;8.80;36.80;;;;;;6232518;28;20235;-60
2021/12/16 05:39:11;;;;;;;22.17;14.70;;;8.70;39.30;;;;;;6229762;28;20346;-60
2021/12/16 05:42:14;;;;;;;21.87;15.10;;;8.70;42.00;;;;;;6231613;28;20896;-60
2021/12/16 05:45:19;;;;;;;23.43;15.27;;;8.70;44.00;;;;;;6228808;28;20234;-59
2021/12/16 05:48:23;;;;;;;20.30;15.43;;;8.60;45.80;;;;;;6221809;28;20234;-59
2021/12/16 05:51:29;;;;;;;23.13;15.40;;;8.50;47.80;;;;;;6219245;28;20759;-60
2021/12/16 05:54:31;;;;;;;20.67;14.97;;;8.50;49.40;;;;;;6230069;28;20266;-60
2021/12/16 05:57:35;;;;;;;21.37;15.77;;;8.40;50.40;;;;;;6226116;28;21003;-60
2021/12/16 06:00:41;;;;;;;21.20;15.37;;;8.40;51.50;;;;;;6234902;28;20746;-62
2021/12/16 06:03:45;;;;;;;21.13;15.80;;;8.40;52.30;;;;;;6232043;28;20770;-60
2021/12/16 06:06:48;;;;;;;17.60;15.67;;;8.40;52.80;;;;;;6232558;28;20381;-59
2021/12/16 06:09:51;;;;;;;19.83;16.10;;;8.40;53.20;;;;;;6233214;28;20239;-60
2021/12/16 06:12:54;;;;;;;23.73;16.33;;;8.30;54.40;;;;;;6233576;28;20282;-58
2021/12/16 06:22:23;;;;;;;18.93;16.00;;;8.30;55.10;;;;;;6232310;28;20246;-60
2021/12/16 06:26:24;;;;;;;21.47;14.90;;;8.30;55.10;;;;;;6227000;28;20320;-58
2021/12/16 06:26:31;;;;;;;19.03;15.53;;;8.30;55.30;;;;;;6237187;28;20285;-60
2021/12/16 06:29:34;;;;;;;22.03;16.03;;;8.30;55.20;;;;;;6236590;28;20231;-58
2021/12/16 06:32:39;;;;;;;24.53;16.40;;;8.30;55.10;;;;;;6236565;28;20399;-59
2021/12/16 06:35:43;;;;;;;21.97;15.97;;;8.40;54.10;;;;;;6236066;28;20329;-59
2021/12/16 06:38:46;;;;;;;23.70;16.23;;;8.30;55.10;;;;;;6236487;28;20231;-58
2021/12/16 06:41:48;;;;;;;19.87;15.60;;;8.30;55.10;;;;;;6233616;28;20855;-60
2021/12/16 06:44:56;;;;;;;21.10;16.30;;;8.40;54.40;;;;;;6234161;28;20317;-60
2021/12/16 06:48:04;;;;;;;23.30;15.57;;;8.40;54.40;;;;;;6232436;28;20607;-60
2021/12/16 06:51:13;;;;;;;23.70;16.13;;;8.40;54.70;;;;;;6238227;28;20272;-59
2021/12/16 06:54:24;;;;;;;29.03;16.03;;;8.40;54.40;;;;;;6239513;28;20254;-59
2021/12/16 06:57:37;;;;;;;25.20;15.33;;;8.40;54.30;;;;;;6237373;28;20612;-58
2021/12/16 07:00:45;;;;;;;24.43;15.50;;;8.40;54.50;;;;;;6232524;28;20723;-60
2021/12/16 07:03:49;;;;;;;24.43;16.63;;;8.40;54.80;;;;;;6237641;28;20242;-58
2021/12/16 07:06:52;;;;;;;20.30;16.10;;;8.40;54.60;;;;;;6239332;28;20234;-59
2021/12/16 07:09:54;;;;;;;26.90;17.13;;;8.40;54.30;;;;;;6244342;28;20233;-60
2021/12/16 07:13:06;;;;;;;25.83;16.43;;;8.40;54.70;;;;;;6232316;28;20234;-60
2021/12/16 07:16:10;;;;;;;19.03;15.13;;;8.40;54.80;;;;;;6235983;28;20640;-61
2021/12/16 07:19:14;;;;;;;25.67;16.57;;;8.50;55.20;;;;;;6236526;28;20234;-60
2021/12/16 07:22:18;;;;;;;23.70;15.77;;;8.50;54.70;;;;;;6236689;28;20320;-60
2021/12/16 07:25:21;;;;;;;27.27;17.30;;;8.40;54.90;;;;;;6242695;28;20239;-59
2021/12/16 07:28:24;;;;;;;22.23;15.13;;;8.50;54.40;;;;;;6235612;28;20241;-60
2021/12/16 07:31:28;;;;;;;24.97;15.80;;;8.50;53.30;;;;;;6235210;28;20745;-62
2021/12/16 07:34:33;;;;;;;20.30;15.70;;;8.50;54.40;;;;;;6237573;28;20234;-59
2021/12/16 07:37:36;;;;;;;20.93;15.67;;;8.50;54.10;;;;;;6240170;28;20234;-59
2021/12/16 07:40:41;;;;;;;17.90;14.90;;;8.50;54.00;;;;;;6242562;28;20245;-60
2021/12/16 07:43:55;;;;;;;17.60;14.67;;;8.50;54.30;;;;;;6238509;28;20280;-59
2021/12/16 07:47:06;;;;;;;26.17;16.93;;;8.60;54.40;;;;;;6228428;28;20716;-59
2021/12/16 07:50:13;;;;;;;25.17;16.53;;;8.50;55.10;;;;;;6229747;28;20412;-59
2021/12/16 07:53:16;;;;;;;20.73;16.43;;;8.60;55.40;;;;;;6229949;28;20727;-60
2021/12/16 07:56:19;;;;;;;27.87;16.47;;;8.60;54.70;;;;;;6206385;28;20645;-60
2021/12/16 07:59:22;;;;;;;22.13;15.33;;;8.60;54.10;;;;;;6231983;28;20237;-60
2021/12/16 08:02:25;;;;;;;26.43;16.43;;;8.60;54.90;;;;;;6231397;28;20230;-59
2021/12/16 08:05:32;;;;;;;26.40;15.97;;;8.60;55.40;;;;;;6229529;28;20956;-60
2021/12/16 08:08:35;;;;;;;20.70;15.07;;;8.60;55.90;;;;;;6232904;28;20320;-60
2021/12/16 08:11:40;;;;;;;19.43;14.83;;;8.60;55.80;;;;;;6232744;28;20235;-60
2021/12/16 08:14:45;;;;;;;24.93;15.97;;;8.60;55.90;;;;;;6232528;28;20272;-60
2021/12/16 08:17:48;;;;;;;23.87;14.80;;;8.60;56.30;;;;;;6230851;28;20715;-59
2021/12/16 08:20:52;;;;;;;22.93;14.80;;;8.60;56.20;;;;;;6227610;28;20497;-60
2021/12/16 08:23:55;;;;;;;22.70;15.30;;;8.60;56.40;;;;;;6230173;28;20245;-59
2021/12/16 08:26:58;;;;;;;22.87;14.30;;;8.70;56.70;;;;;;6234711;28;20487;-59
2021/12/16 08:30:01;;;;;;;18.67;14.10;;;8.70;55.50;;;;;;6236448;28;20236;-63
2021/12/16 08:33:08;;;;;;;23.10;14.77;;;8.70;55.60;;;;;;6233877;28;20235;-63
2021/12/16 08:36:14;;;;;;;22.33;13.97;;;8.70;55.00;;;;;;6232389;28;20245;-60
2021/12/16 08:39:18;;;;;;;20.67;13.73;;;8.70;56.10;;;;;;6231255;28;20230;-60
2021/12/16 08:42:26;;;;;;;25.27;14.70;;;8.70;56.80;;;;;;6221506;28;20231;-61
2021/12/16 08:45:32;;;;;;;17.80;13.67;;;8.70;56.20;;;;;;6231968;28;20377;-59
2021/12/16 08:48:35;;;;;;;23.53;15.07;;;8.80;56.20;;;;;;6226158;28;20227;-60
2021/12/16 08:51:42;;;;;;;24.00;14.50;;;8.70;56.00;;;;;;6228910;28;20406;-59
2021/12/16 08:54:45;;;;;;;17.67;14.37;;;8.80;56.70;;;;;;6227047;28;20281;-60
2021/12/16 08:57:48;;;;;;;18.27;14.83;;;8.80;56.10;;;;;;6230517;28;20308;-60
2021/12/16 09:00:55;;;;;;;19.97;14.57;;;8.80;55.80;;;;;;6231779;28;20242;-59
2021/12/16 09:03:59;;;;;;;22.50;15.40;;;8.80;55.90;;;;;;6232867;28;20282;-58
2021/12/16 09:07:08;;;;;;;20.93;16.47;;;8.80;55.70;;;;;;6232622;28;20257;-58
2021/12/16 09:10:13;;;;;;;25.60;16.97;;;8.90;54.70;;;;;;6227546;28;20381;-60
2021/12/16 09:13:17;;;;;;;21.17;15.83;;;8.90;55.00;;;;;;6226426;28;20236;-59
2021/12/16 09:16:23;;;;;;;18.57;15.47;;;9.20;54.80;;;;;;6232411;28;20353;-58
2021/12/16 09:19:26;;;;;;;20.63;15.47;;;8.90;55.00;;;;;;6229253;28;20373;-59
2021/12/16 09:22:31;;;;;;;23.43;15.83;;;8.90;55.50;;;;;;6232246;28;20238;-60
2021/12/16 09:25:33;;;;;;;24.17;14.77;;;8.90;55.10;;;;;;6232071;28;20262;-58
2021/12/16 09:28:37;;;;;;;18.03;14.20;;;8.90;55.10;;;;;;6221865;28;20965;-59
2021/12/16 09:31:40;;;;;;;17.17;13.47;;;8.90;55.30;;;;;;6226748;28;20230;-60
2021/12/16 09:34:45;;;;;;;22.57;13.93;;;8.90;55.00;;;;;;6226750;28;20237;-58
2021/12/16 09:37:49;;;;;;;19.67;15.87;;;9.00;55.50;;;;;;6233501;28;20333;-59
2021/12/16 09:40:55;;;;;;;19.60;15.30;;;8.90;55.20;;;;;;6231405;28;20247;-59
2021/12/16 09:43:59;;;;;;;18.93;14.13;;;9.00;55.90;;;;;;6225133;28;20814;-60
2021/12/16 09:47:05;;;;;;;15.63;13.33;;;9.10;54.10;;;;;;6229675;28;20242;-59
2021/12/16 09:50:11;;;;;;;15.17;13.30;;;9.10;54.10;;;;;;6234215;28;20231;-59
2021/12/16 09:53:15;;;;;;;16.30;12.77;;;9.10;54.40;;;;;;6217504;28;20237;-60
2021/12/16 09:56:20;;;;;;;18.70;14.00;;;9.10;53.50;;;;;;6234549;28;20376;-59
2021/12/16 09:59:24;;;;;;;18.67;13.43;;;9.10;54.40;;;;;;6242368;28;20425;-60
2021/12/16 10:02:27;;;;;;;20.97;13.70;;;9.10;55.30;;;;;;6235297;28;20270;-60
2021/12/16 10:05:34;;;;;;;16.90;11.80;;;9.00;55.40;;;;;;6236341;28;20297;-61
2021/12/16 10:08:40;;;;;;;16.17;13.17;;;9.00;55.30;;;;;;6241364;28;20272;-60
2021/12/16 10:11:46;;;;;;;15.63;13.17;;;9.10;55.80;;;;;;6235847;28;20802;-59
2021/12/16 10:15:08;;;;;;;12.83;11.50;;;9.00;56.40;;;;;;6236662;28;20247;-59
2021/12/16 10:18:16;;;;;;;17.43;12.40;;;9.10;56.00;;;;;;6234405;28;20258;-60
2021/12/16 10:21:23;;;;;;;17.63;12.73;;;9.20;55.80;;;;;;6229485;28;20722;-60
2021/12/16 10:24:29;;;;;;;15.87;11.43;;;9.20;55.30;;;;;;6237250;28;20300;-60
2021/12/16 10:27:32;;;;;;;14.83;11.50;;;9.20;55.20;;;;;;6234545;28;20853;-60
2021/12/16 10:30:42;;;;;;;15.40;11.37;;;9.20;54.70;;;;;;6236523;28;20369;-59
2021/12/16 10:33:48;;;;;;;12.80;10.63;;;9.30;53.20;;;;;;6218580;28;20230;-59
2021/12/16 10:36:51;;;;;;;13.27;11.50;;;9.30;53.20;;;;;;6234733;28;20251;-59
2021/12/16 10:40:15;;;;;;;11.97;10.77;;;9.30;53.10;;;;;;6238152;28;20687;-60
2021/12/16 10:43:27;;;;;;;11.67;10.57;;;9.40;53.20;;;;;;6234802;28;20246;-59
2021/12/16 10:46:32;;;;;;;11.50;10.33;;;9.40;53.20;;;;;;6218171;28;20663;-59
2021/12/16 10:49:37;;;;;;;12.07;10.00;;;9.50;51.40;;;;;;6225030;28;20731;-60
2021/12/16 10:52:40;;;;;;;12.17;9.37;;;9.40;51.00;;;;;;6241902;28;20783;-60
2021/12/16 10:55:59;;;;;;;12.40;9.73;;;9.40;50.30;;;;;;6236630;28;20329;-59
2021/12/16 10:59:07;;;;;;;10.10;9.20;;;9.40;49.30;;;;;;6224637;28;20362;-58
2021/12/16 11:02:16;;;;;;;11.00;9.63;;;9.50;48.70;;;;;;6235223;28;20223;-59
2021/12/16 11:05:24;;;;;;;9.57;8.77;;;9.50;47.10;;;;;;6232534;28;20245;-59
2021/12/16 11:08:27;;;;;;;10.20;9.20;;;9.60;47.40;;;;;;6239319;28;20238;-59
2021/12/16 11:11:31;;;;;;;9.53;8.73;;;9.70;46.70;;;;;;6234837;28;20376;-60
2021/12/16 11:14:34;;;;;;;8.83;8.00;;;9.70;44.20;;;;;;6230928;28;20762;-60
2021/12/16 11:17:41;;;;;;;8.50;7.80;;;9.70;40.90;;;;;;6235075;28;20330;-61
2021/12/16 11:20:46;;;;;;;8.20;7.60;;;9.80;39.30;;;;;;6232043;28;20795;-60
2021/12/16 11:23:50;;;;;;;7.83;7.33;;;9.70;35.10;;;;;;6216190;28;20330;-60
2021/12/16 11:26:55;;;;;;;6.77;6.37;;;9.70;32.80;;;;;;6230717;28;20326;-58
2021/12/16 11:30:00;;;;;;;8.77;7.97;;;9.80;34.60;;;;;;6234424;28;20230;-60
2021/12/16 11:33:10;;;;;;;8.13;7.53;;;9.90;34.70;;;;;;6227655;28;20705;-60
2021/12/16 11:36:15;;;;;;;7.93;7.33;;;10.00;34.70;;;;;;6230251;28;20227;-60
2021/12/16 11:39:19;;;;;;;8.63;7.93;;;10.10;28.70;;;;;;6229839;28;20750;-60
2021/12/16 11:42:28;;;;;;;11.83;8.70;;;10.10;28.70;;;;;;6218795;28;20251;-59
2021/12/16 11:45:34;;;;;;;9.57;8.77;;;10.20;29.40;;;;;;6234008;28;20285;-59
2021/12/16 11:48:40;;;;;;;11.87;10.33;;;10.20;31.20;;;;;;6228822;28;20610;-58
2021/12/16 11:51:46;;;;;;;15.23;11.10;;;10.30;29.60;;;;;;6223584;28;20482;-60
2021/12/16 11:54:53;;;;;;;11.47;10.30;;;10.40;29.50;;;;;;6233586;28;20619;-60
2021/12/16 11:58:03;;;;;;;8.67;7.83;;;10.50;29.00;;;;;;6235922;28;20922;-60
2021/12/16 12:01:18;;;;;;;8.13;7.43;;;10.40;22.40;;;;;;6232864;28;20238;-59
2021/12/16 12:04:27;;;;;;;7.70;7.20;;;10.40;22.80;;;;;;6230221;28;20234;-60
2021/12/16 12:07:40;;;;;;;7.20;6.70;;;10.30;23.30;;;;;;6226573;28;20242;-58
2021/12/16 12:10:46;;;;;;;7.10;6.70;;;10.30;22.60;;;;;;6227054;28;20337;-60
2021/12/16 12:13:54;;;;;;;7.03;6.33;;;10.30;23.00;;;;;;6232783;28;20341;-59
2021/12/16 12:17:04;;;;;;;6.93;6.43;;;10.40;21.80;;;;;;6228225;28;20238;-60
2021/12/16 12:20:08;;;;;;;6.87;6.27;;;10.50;20.20;;;;;;6231706;28;20284;-59
2021/12/16 12:23:10;;;;;;;6.77;6.17;;;10.50;18.80;;;;;;6227851;28;20242;-60
2021/12/16 12:26:16;;;;;;;6.33;5.93;;;10.50;15.80;;;;;;6237451;28;20513;-62
2021/12/16 12:29:27;;;;;;;6.70;6.07;;;10.50;15.70;;;;;;6239393;28;20719;-58
2021/12/16 12:32:34;;;;;;;5.90;5.50;;;10.40;15.40;;;;;;6223961;28;20253;-61
2021/12/16 12:35:36;;;;;;;6.20;5.80;;;10.30;13.70;;;;;;6221925;28;20253;-60
2021/12/16 12:38:39;;;;;;;6.17;5.80;;;10.20;15.20;;;;;;6227609;28;20258;-59
2021/12/16 12:41:42;;;;;;;6.53;6.13;;;10.30;16.00;;;;;;6232177;28;20313;-59
2021/12/16 12:44:47;;;;;;;5.90;5.47;;;10.30;17.80;;;;;;6233875;28;20230;-59
2021/12/16 12:47:53;;;;;;;5.90;5.60;;;10.40;14.50;;;;;;6228822;28;20239;-59
2021/12/16 12:50:58;;;;;;;5.80;5.50;;;10.40;10.50;;;;;;6221170;28;20247;-59
2021/12/16 12:54:16;;;;;;;7.90;5.50;;;10.50;9.80;;;;;;6234490;28;20603;-59
2021/12/16 12:57:23;;;;;;;5.53;5.20;;;10.50;9.80;;;;;;6225777;28;20281;-59
2021/12/16 13:00:30;;;;;;;6.10;5.70;;;10.50;9.80;;;;;;6225783;28;20257;-57
2021/12/16 13:03:37;;;;;;;6.07;5.47;;;10.60;8.70;;;;;;6231741;28;20246;-59
2021/12/16 13:07:06;;;;;;;6.07;5.50;;;10.60;9.90;;;;;;6229138;28;20235;-60
2021/12/16 13:10:13;;;;;;;6.13;5.73;;;10.60;8.60;;;;;;6235450;28;20753;-59
2021/12/16 13:17:03;;;;;;;6.47;5.93;;;10.60;8.20;;;;;;6225882;28;20243;-59
2021/12/16 13:23:36;;;;;;;6.63;5.70;;;10.50;8.70;;;;;;6232760;28;20452;-59
2021/12/16 13:26:48;;;;;;;7.50;5.23;;;10.40;7.20;;;;;;6232689;28;20267;-60
2021/12/16 13:30:08;;;;;;;6.57;5.97;;;10.40;8.00;;;;;;6208002;28;20297;-58
2021/12/16 13:33:20;;;;;;;7.93;6.07;;;10.40;8.50;;;;;;6204505;28;20704;-59
2021/12/16 13:36:40;;;;;;;5.50;5.00;;;10.20;9.60;;;;;;6237085;28;20230;-60
2021/12/16 13:39:46;;;;;;;5.70;5.37;;;10.20;9.60;;;;;;6225495;28;20238;-58
2021/12/16 13:42:55;;;;;;;8.43;4.93;;;10.10;9.50;;;;;;6232865;28;20659;-60
2021/12/16 13:46:15;;;;;;;6.00;5.40;;;10.10;10.20;;;;;;6236523;28;20242;-58
2021/12/16 14:04:06;;;;;;;5.60;4.93;;;9.80;15.80;;;;;;6232602;28;20234;-60
2021/12/16 14:07:29;;;;;;;6.90;6.30;;;9.60;15.40;;;;;;6234681;28;20330;-60
2021/12/16 14:10:50;;;;;;;8.70;6.07;;;9.60;15.20;;;;;;6232022;28;20316;-60
2021/12/16 14:14:21;;;;;;;10.10;6.47;;;9.50;14.40;;;;;;6230470;28;20643;-61
2021/12/16 14:17:44;;;;;;;6.33;5.47;;;9.50;15.10;;;;;;6210840;28;20242;-58
2021/12/16 14:24:22;;;;;;;5.63;5.30;;;9.40;17.10;;;;;;6214617;28;20224;-60
2021/12/16 14:31:26;;;;;;;6.10;5.50;;;9.30;19.10;;;;;;6229590;28;20270;-59
2021/12/16 14:34:54;;;;;;;11.20;6.10;;;9.30;20.50;;;;;;6223837;28;20336;-59
2021/12/16 14:38:07;;;;;;;6.63;5.57;;;9.20;21.70;;;;;;6228063;28;20239;-60
2021/12/16 14:41:35;;;;;;;9.70;5.37;;;9.20;20.10;;;;;;6232853;28;20459;-60
2021/12/16 14:48:27;;;;;;;8.30;5.87;;;9.00;21.50;;;;;;6232266;28;20477;-59
2021/12/16 14:51:30;;;;;;;6.83;5.70;;;9.00;20.80;;;;;;6217931;28;20234;-58
2021/12/16 14:54:34;;;;;;;6.13;5.57;;;9.00;21.50;;;;;;6230665;28;20481;-60
2021/12/16 14:57:42;;;;;;;6.73;5.10;;;8.90;21.50;;;;;;6238402;28;20250;-58
2021/12/16 15:00:51;;;;;;;5.90;5.40;;;8.90;22.20;;;;;;6237247;28;20765;-60
2021/12/16 15:03:54;;;;;;;7.93;5.90;;;8.90;22.90;;;;;;6231674;28;20227;-60
2021/12/16 15:07:04;;;;;;;6.93;6.20;;;8.80;24.20;;;;;;6237391;28;20432;-58
2021/12/16 15:10:13;;;;;;;6.80;6.03;;;8.70;25.30;;;;;;6246475;28;20513;-59
2021/12/16 15:13:24;;;;;;;6.40;5.77;;;8.60;25.20;;;;;;6234321;28;20393;-59
2021/12/16 15:16:46;;;;;;;6.80;6.20;;;8.50;26.50;;;;;;6243130;28;20243;-58
2021/12/16 15:37:08;;;;;;;8.00;5.43;;;8.20;33.80;;;;;;6213342;28;20238;-60
2021/12/16 15:40:30;;;;;;;7.00;5.40;;;8.20;34.00;;;;;;6237329;28;20744;-60
2021/12/16 15:43:33;;;;;;;7.70;6.17;;;8.10;34.60;;;;;;6237016;28;20285;-59
2021/12/16 15:46:38;;;;;;;9.27;6.90;;;8.10;36.80;;;;;;6226898;28;20313;-59
2021/12/16 15:49:41;;;;;;;8.73;7.23;;;8.10;36.60;;;;;;6229276;28;20236;-60
2021/12/16 15:52:45;;;;;;;8.33;6.87;;;8.10;37.40;;;;;;6225114;28;20334;-59
2021/12/16 15:55:52;;;;;;;9.33;7.90;;;8.10;38.00;;;;;;6223229;28;20250;-64
2021/12/16 15:58:58;;;;;;;13.03;8.40;;;8.10;38.00;;;;;;6232751;28;20329;-60
2021/12/16 16:02:03;;;;;;;14.73;7.93;;;8.00;38.10;;;;;;6227621;28;20700;-61
2021/12/16 16:05:06;;;;;;;10.97;8.40;;;8.00;38.90;;;;;;6233010;28;20260;-61
2021/12/16 16:08:12;;;;;;;12.23;7.60;;;8.00;39.70;;;;;;6234858;28;20280;-62
2021/12/16 16:11:18;;;;;;;13.00;8.13;;;8.00;39.30;;;;;;6228036;28;20758;-62
2021/12/16 16:14:24;;;;;;;14.33;7.97;;;7.90;39.20;;;;;;6230542;28;20608;-60
2021/12/16 16:17:31;;;;;;;11.27;8.27;;;7.90;39.20;;;;;;6221161;28;20294;-59
2021/12/16 16:20:34;;;;;;;11.60;7.07;;;7.80;39.80;;;;;;6226541;28;20366;-59
2021/12/16 16:23:40;;;;;;;10.87;6.90;;;7.90;40.10;;;;;;6235733;28;20237;-61
2021/12/16 16:26:44;;;;;;;6.53;5.83;;;7.90;39.70;;;;;;6223350;28;20691;-60
2021/12/16 16:29:49;;;;;;;8.00;5.43;;;7.80;40.10;;;;;;6227529;28;20243;-60
2021/12/16 16:33:05;;;;;;;6.73;5.67;;;7.80;40.00;;;;;;6225280;28;20250;-60
2021/12/16 16:36:11;;;;;;;8.43;5.80;;;7.80;40.00;;;;;;6224149;28;20227;-59
2021/12/16 16:39:17;;;;;;;6.47;5.40;;;7.70;40.60;;;;;;6221458;28;20649;-59
2021/12/16 16:42:20;;;;;;;11.47;5.67;;;7.80;41.30;;;;;;6221504;28;20335;-58
2021/12/16 16:45:31;;;;;;;8.80;5.60;;;7.70;41.30;;;;;;6226815;28;20246;-60
2021/12/16 16:48:48;;;;;;;7.33;5.90;;;7.70;41.70;;;;;;6211951;28;20444;-59
2021/12/16 16:51:51;;;;;;;10.87;5.40;;;7.60;42.30;;;;;;6231937;28;20469;-61
2021/12/16 16:55:04;;;;;;;7.47;6.00;;;7.60;42.40;;;;;;6224835;28;20325;-60
2021/12/16 16:58:09;;;;;;;7.37;5.97;;;7.60;43.10;;;;;;6230765;28;20310;-58
2021/12/16 17:01:13;;;;;;;6.57;5.67;;;7.60;42.90;;;;;;6232965;28;20242;-59
2021/12/16 17:04:17;;;;;;;7.77;5.87;;;7.60;43.30;;;;;;6235330;28;20234;-60
2021/12/16 17:07:20;;;;;;;8.87;6.10;;;7.60;43.80;;;;;;6220067;28;20243;-58
2021/12/16 17:10:32;;;;;;;11.43;6.70;;;7.50;44.40;;;;;;6229290;28;20822;-60
2021/12/16 17:13:43;;;;;;;10.10;6.17;;;7.40;45.00;;;;;;6230892;28;20238;-59
2021/12/16 17:20:15;;;;;;;13.40;6.57;;;7.40;47.40;;;;;;6234688;28;20409;-60
2021/12/16 17:23:18;;;;;;;10.13;6.27;;;7.40;47.00;;;;;;6228425;28;20366;-61
2021/12/16 17:26:25;;;;;;;12.07;6.90;;;7.50;46.90;;;;;;6225310;28;20258;-59
2021/12/16 17:29:31;;;;;;;9.73;6.73;;;7.20;48.30;;;;;;6218745;28;20381;-60
2021/12/16 17:32:34;;;;;;;10.70;6.80;;;7.40;49.50;;;;;;6234035;28;20231;-59
2021/12/16 17:35:42;;;;;;;8.13;7.17;;;7.40;48.70;;;;;;6220860;28;20235;-60
2021/12/16 17:38:45;;;;;;;9.10;6.20;;;7.40;49.00;;;;;;6239817;28;20238;-60
2021/12/16 17:41:56;;;;;;;14.63;7.07;;;7.30;49.00;;;;;;6230247;28;20694;-62
2021/12/16 17:45:04;;;;;;;10.13;6.67;;;7.30;49.40;;;;;;6232785;28;20361;-59
2021/12/16 17:48:12;;;;;;;12.87;7.00;;;7.20;50.60;;;;;;6218703;28;20235;-60
2021/12/16 17:51:20;;;;;;;14.77;7.10;;;7.30;51.40;;;;;;6232387;28;20234;-59
2021/12/16 17:54:23;;;;;;;8.23;7.20;;;7.30;51.40;;;;;;6231975;28;20227;-60
2021/12/16 17:57:30;;;;;;;11.63;6.60;;;7.30;51.40;;;;;;6234417;28;20300;-60
2021/12/16 18:00:39;;;;;;;10.23;7.10;;;7.40;51.50;;;;;;6239112;28;20244;-60
2021/12/16 18:03:48;;;;;;;8.93;7.03;;;7.40;51.40;;;;;;6211563;28;20814;-60
2021/12/16 18:06:56;;;;;;;15.37;7.67;;;7.30;51.40;;;;;;6231279;28;20289;-61
2021/12/16 18:09:59;;;;;;;9.17;7.00;;;7.30;51.40;;;;;;6232500;28;20329;-59
2021/12/16 18:13:02;;;;;;;9.20;7.17;;;7.30;52.00;;;;;;6233191;28;20250;-61
2021/12/16 18:16:06;;;;;;;10.77;7.43;;;7.30;51.40;;;;;;6228275;28;20348;-64
2021/12/16 18:19:12;;;;;;;13.67;7.83;;;7.20;51.30;;;;;;6226606;28;20388;-59
2021/12/16 18:22:23;;;;;;;9.50;7.30;;;7.30;52.90;;;;;;6239712;28;20230;-60
2021/12/16 18:25:29;;;;;;;15.97;6.80;;;7.20;52.90;;;;;;6234423;28;20781;-60
2021/12/16 18:28:36;;;;;;;9.73;7.73;;;7.20;53.30;;;;;;6236056;28;20723;-59
2021/12/16 18:31:45;;;;;;;14.57;7.60;;;7.20;53.90;;;;;;6236540;28;20235;-60
2021/12/16 18:35:05;;;;;;;8.67;6.97;;;7.10;53.30;;;;;;6234982;28;20229;-59
2021/12/16 18:38:12;;;;;;;8.57;6.70;;;7.10;53.60;;;;;;6235401;28;20235;-60